createdAt,value
2019-05-30T00:01:41.534Z,10.90
2019-05-30T00:04:11.221Z,10.90
2019-05-30T00:06:40.961Z,11.00
2019-05-30T00:09:11.055Z,10.80
2019-05-30T00:11:40.823Z,10.80
2019-05-30T00:14:10.510Z,10.80
2019-05-30T00:16:40.244Z,10.60
2019-05-30T00:19:09.907Z,10.70
2019-05-30T00:21:39.603Z,10.60
2019-05-30T00:24:09.619Z,10.70
2019-05-30T00:26:39.663Z,10.80
2019-05-30T00:29:09.345Z,10.80
2019-05-30T00:31:39.046Z,10.80
2019-05-30T00:34:08.835Z,10.70
2019-05-30T00:36:38.599Z,10.70
2019-05-30T00:39:08.386Z,10.70
2019-05-30T00:41:38.101Z,10.70
2019-05-30T00:44:07.859Z,10.70
2019-05-30T00:46:37.565Z,10.40
2019-05-30T00:49:07.349Z,10.10
2019-05-30T00:51:37.412Z,10.20
2019-05-30T00:54:07.148Z,10.50
2019-05-30T00:56:36.791Z,10.30
2019-05-30T00:59:06.978Z,10.50
2019-05-30T01:01:37.070Z,10.30
2019-05-30T01:04:07.121Z,10.50
2019-05-30T01:06:36.949Z,10.50
2019-05-30T01:09:07.595Z,10.50
2019-05-30T01:11:37.633Z,10.30
2019-05-30T01:14:07.719Z,10.30
2019-05-30T01:16:37.510Z,10.30
2019-05-30T01:19:07.442Z,9.80
2019-05-30T01:21:37.266Z,10.30
2019-05-30T01:24:07.667Z,10.30
2019-05-30T01:26:37.888Z,10.30
2019-05-30T01:29:07.818Z,10.20
2019-05-30T01:31:37.563Z,10.20
2019-05-30T01:34:07.960Z,9.90
2019-05-30T01:36:37.882Z,10.00
2019-05-30T01:39:08.310Z,10.20
2019-05-30T01:41:38.102Z,10.10
2019-05-30T01:44:08.335Z,10.30
2019-05-30T01:46:38.233Z,10.30
2019-05-30T01:49:08.729Z,10.20
2019-05-30T01:51:38.579Z,10.00
2019-05-30T01:54:08.814Z,10.20
2019-05-30T01:56:38.564Z,10.10
2019-05-30T01:59:08.918Z,9.60
2019-05-30T02:01:38.783Z,9.90
2019-05-30T02:04:09.440Z,9.60
2019-05-30T02:06:39.270Z,9.60
2019-05-30T02:09:10.219Z,9.70
2019-05-30T02:11:40.793Z,9.90
2019-05-30T02:14:10.472Z,9.70
2019-05-30T02:16:40.179Z,9.70
2019-05-30T02:19:10.536Z,9.70
2019-05-30T02:21:40.601Z,9.70
2019-05-30T02:24:12.094Z,9.80
2019-05-30T02:26:41.979Z,9.90
2019-05-30T02:29:11.681Z,9.80
2019-05-30T02:31:41.461Z,9.70
2019-05-30T02:34:12.322Z,9.30
2019-05-30T02:36:42.306Z,9.60
2019-05-30T02:39:12.438Z,9.50
2019-05-30T02:41:42.152Z,9.40
2019-05-30T02:44:12.593Z,9.60
2019-05-30T02:46:42.424Z,9.40
2019-05-30T02:49:13.764Z,9.50
2019-05-30T02:51:43.681Z,9.60
2019-05-30T02:54:13.539Z,9.40
2019-05-30T02:56:44.366Z,9.70
2019-05-30T02:59:14.120Z,9.50
2019-05-30T03:01:59.945Z,9.70
2019-05-30T03:04:15.337Z,9.60
2019-05-30T03:06:45.439Z,9.60
2019-05-30T03:09:15.268Z,9.30
2019-05-30T03:11:45.119Z,9.40
2019-05-30T03:14:19.534Z,9.30
2019-05-30T03:16:46.811Z,9.30
2019-05-30T03:19:16.478Z,9.30
2019-05-30T03:21:46.233Z,9.40
2019-05-30T03:24:16.591Z,9.70
2019-05-30T03:26:46.356Z,9.50
2019-05-30T03:29:16.410Z,9.10
2019-05-30T03:31:47.729Z,9.50
2019-05-30T03:34:26.922Z,9.10
2019-05-30T03:36:48.998Z,8.90
2019-05-30T03:39:19.109Z,9.10
2019-05-30T03:41:48.904Z,9.10
2019-05-30T03:44:18.575Z,9.10
2019-05-30T03:46:54.055Z,9.30
2019-05-30T03:49:29.425Z,9.60
2019-05-30T03:52:05.017Z,9.40
2019-05-30T03:54:36.275Z,9.40
2019-05-30T03:57:18.519Z,10.00
2019-05-30T03:59:58.524Z,10.10
2019-05-30T04:02:55.865Z,10.10
2019-05-30T04:05:19.327Z,10.20
2019-05-30T04:07:54.931Z,10.50
2019-05-30T04:10:30.194Z,10.50
2019-05-30T04:13:22.368Z,10.50
2019-05-30T04:15:52.353Z,10.40
2019-05-30T04:18:22.076Z,10.40
2019-05-30T04:20:51.879Z,10.30
2019-05-30T04:23:21.578Z,10.30
2019-05-30T04:25:51.300Z,10.40
2019-05-30T04:28:21.045Z,10.20
2019-05-30T04:30:50.744Z,10.20
2019-05-30T04:33:32.606Z,10.70
2019-05-30T04:35:52.161Z,10.40
2019-05-30T04:38:21.901Z,10.40
2019-05-30T04:40:51.910Z,10.40
2019-05-30T04:43:21.625Z,10.80
2019-05-30T04:45:51.352Z,10.80
2019-05-30T04:48:21.468Z,11.00
2019-05-30T04:50:51.340Z,11.30
2019-05-30T04:53:21.243Z,11.30
2019-05-30T04:55:51.133Z,11.40
2019-05-30T04:58:24.011Z,11.80
2019-05-30T05:00:52.358Z,12.00
2019-05-30T05:03:43.475Z,12.00
2019-05-30T05:05:53.466Z,12.00
2019-05-30T05:08:23.169Z,11.40
2019-05-30T05:10:52.928Z,11.70
2019-05-30T05:13:22.772Z,11.90
2019-05-30T05:15:52.421Z,12.20
2019-05-30T05:18:23.429Z,12.10
2019-05-30T05:20:53.225Z,12.20
2019-05-30T05:23:23.567Z,12.50
2019-05-30T05:26:00.928Z,12.80
2019-05-30T05:28:24.881Z,12.90
2019-05-30T05:30:54.590Z,12.60
2019-05-30T05:33:24.788Z,13.00
2019-05-30T05:35:54.611Z,13.20
2019-05-30T05:38:24.518Z,13.20
2019-05-30T05:40:54.221Z,13.10
2019-05-30T05:43:24.453Z,13.40
2019-05-30T05:45:54.240Z,13.30
2019-05-30T05:48:24.708Z,13.50
2019-05-30T05:50:54.469Z,13.40
2019-05-30T05:53:25.144Z,13.60
2019-05-30T05:55:54.975Z,13.80
2019-05-30T05:58:26.479Z,13.90
2019-05-30T06:00:56.300Z,14.00
2019-05-30T06:03:26.024Z,14.20
2019-05-30T06:05:55.813Z,14.20
2019-05-30T06:08:25.931Z,14.10
2019-05-30T06:10:55.705Z,14.10
2019-05-30T06:13:25.493Z,14.30
2019-05-30T06:15:55.229Z,14.20
2019-05-30T06:18:26.225Z,14.30
2019-05-30T06:20:56.072Z,14.20
2019-05-30T06:23:25.807Z,14.50
2019-05-30T06:25:55.767Z,14.70
2019-05-30T06:28:26.306Z,14.90
2019-05-30T06:30:58.854Z,14.90
2019-05-30T06:33:29.161Z,14.70
2019-05-30T06:35:58.930Z,14.50
2019-05-30T06:38:29.529Z,15.00
2019-05-30T06:40:59.304Z,15.40
2019-05-30T06:43:30.323Z,15.40
2019-05-30T06:46:00.167Z,15.00
2019-05-30T06:48:30.861Z,15.40
2019-05-30T06:51:01.133Z,15.50
2019-05-30T06:53:31.459Z,15.90
2019-05-30T06:56:01.179Z,15.70
2019-05-30T06:58:45.777Z,15.80
2019-05-30T07:01:02.687Z,15.90
2019-05-30T07:03:32.694Z,16.00
2019-05-30T07:06:03.233Z,16.10
2019-05-30T07:08:33.154Z,16.50
2019-05-30T07:11:02.859Z,16.10
2019-05-30T07:13:33.733Z,16.00
2019-05-30T07:16:03.589Z,16.00
2019-05-30T07:18:36.520Z,16.20
2019-05-30T07:21:04.781Z,16.10
2019-05-30T07:23:34.472Z,16.20
2019-05-30T07:26:23.869Z,16.20
2019-05-30T07:28:53.598Z,16.30
2019-05-30T07:31:24.010Z,16.70
2019-05-30T07:34:13.078Z,16.80
2019-05-30T07:36:42.796Z,16.50
2019-05-30T07:39:12.479Z,16.50
2019-05-30T07:41:42.191Z,16.80
2019-05-30T07:44:12.156Z,17.10
2019-05-30T07:46:41.860Z,16.90
2019-05-30T07:49:11.520Z,17.00
2019-05-30T07:51:41.229Z,17.10
2019-05-30T07:54:10.897Z,17.10
2019-05-30T07:56:40.583Z,17.10
2019-05-30T07:59:10.278Z,17.60
2019-05-30T08:01:40.019Z,17.50
2019-05-30T08:04:09.943Z,17.40
2019-05-30T08:06:39.699Z,17.70
2019-05-30T08:09:09.400Z,17.80
2019-05-30T08:11:39.206Z,17.50
2019-05-30T08:14:08.981Z,17.20
2019-05-30T08:16:38.650Z,17.40
2019-05-30T08:19:08.351Z,17.70
2019-05-30T08:21:38.392Z,17.80
2019-05-30T08:24:08.103Z,18.00
2019-05-30T08:26:38.462Z,18.40
2019-05-30T08:29:08.271Z,18.30
2019-05-30T08:31:38.899Z,18.30
2019-05-30T08:34:09.008Z,18.30
2019-05-30T08:36:39.232Z,18.30
2019-05-30T08:39:09.559Z,18.40
2019-05-30T08:41:39.597Z,18.60
2019-05-30T08:44:09.471Z,18.10
2019-05-30T08:46:40.022Z,18.10
2019-05-30T08:49:09.709Z,18.30
2019-05-30T08:51:40.475Z,18.10
2019-05-30T08:54:13.460Z,18.50
2019-05-30T08:56:41.704Z,18.50
2019-05-30T08:59:11.410Z,18.70
2019-05-30T09:01:42.095Z,18.60
2019-05-30T09:04:12.335Z,18.80
2019-05-30T09:06:42.353Z,18.80
2019-05-30T09:09:12.058Z,18.80
2019-05-30T09:11:42.379Z,18.80
2019-05-30T09:14:12.049Z,19.00
2019-05-30T09:16:41.761Z,18.80
2019-05-30T09:19:11.797Z,19.00
2019-05-30T09:21:41.562Z,18.90
2019-05-30T09:24:12.227Z,19.10
2019-05-30T09:26:45.825Z,19.10
2019-05-30T09:29:13.698Z,19.20
2019-05-30T09:31:44.516Z,19.20
2019-05-30T09:34:14.380Z,19.00
2019-05-30T09:36:44.754Z,19.10
2019-05-30T09:39:14.642Z,19.40
2019-05-30T09:41:45.617Z,19.40
2019-05-30T09:44:15.552Z,19.40
2019-05-30T09:46:46.874Z,19.40
2019-05-30T09:49:16.888Z,19.40
2019-05-30T09:51:47.024Z,19.70
2019-05-30T09:54:16.971Z,19.80
2019-05-30T09:56:46.965Z,19.80
2019-05-30T09:59:16.680Z,20.00
2019-05-30T10:01:46.363Z,19.80
2019-05-30T10:04:16.083Z,20.10
2019-05-30T10:06:46.347Z,20.40
2019-05-30T10:09:16.019Z,20.60
2019-05-30T10:11:45.794Z,20.80
2019-05-30T10:14:15.495Z,20.50
2019-05-30T10:16:50.349Z,20.50
2019-05-30T10:19:16.928Z,20.70
2019-05-30T10:21:47.178Z,21.00
2019-05-30T10:24:16.914Z,21.10
2019-05-30T10:26:47.242Z,21.30
2019-05-30T10:29:16.921Z,21.90
2019-05-30T10:31:46.679Z,21.50
2019-05-30T10:34:16.608Z,22.10
2019-05-30T10:36:47.817Z,22.00
2019-05-30T10:39:18.115Z,22.40
2019-05-30T10:41:49.015Z,22.50
2019-05-30T10:44:18.742Z,23.10
2019-05-30T10:46:49.377Z,23.50
2019-05-30T10:49:33.586Z,24.10
2019-05-30T10:51:51.930Z,23.80
2019-05-30T10:54:21.799Z,23.80
2019-05-30T10:56:52.165Z,24.50
2019-05-30T10:59:21.879Z,24.40
2019-05-30T11:01:53.018Z,24.70
2019-05-30T11:04:24.145Z,24.60
2019-05-30T11:07:11.751Z,25.30
2019-05-30T11:09:46.999Z,25.60
2019-05-30T11:12:16.727Z,26.30
2019-05-30T11:14:47.039Z,26.10
2019-05-30T11:17:18.082Z,26.50
2019-05-30T11:19:48.201Z,26.90
2019-05-30T11:22:17.947Z,27.70
2019-05-30T11:24:48.181Z,28.60
2019-05-30T11:27:18.472Z,28.60
2019-05-30T11:29:48.687Z,27.60
2019-05-30T11:32:19.085Z,28.50
2019-05-30T11:34:49.186Z,28.90
2019-05-30T11:37:19.382Z,29.40
2019-05-30T11:39:49.146Z,30.40
2019-05-30T11:42:18.925Z,31.30
2019-05-30T11:44:49.701Z,31.20
2019-05-30T11:47:19.677Z,29.90
2019-05-30T11:49:49.619Z,30.50
2019-05-30T11:52:19.429Z,32.60
2019-05-30T11:54:49.848Z,32.90
2019-05-30T11:57:19.571Z,34.40
2019-05-30T11:59:50.068Z,35.10
2019-05-30T12:02:19.849Z,35.30
2019-05-30T12:04:50.506Z,36.60
2019-05-30T12:07:35.413Z,34.00
2019-05-30T12:09:52.857Z,31.50
2019-05-30T12:12:41.875Z,34.80
2019-05-30T12:15:12.527Z,36.90
2019-05-30T12:17:42.255Z,36.20
2019-05-30T12:20:12.234Z,38.30
2019-05-30T12:22:41.982Z,36.90
2019-05-30T12:25:12.142Z,36.30
2019-05-30T12:27:42.504Z,36.30
2019-05-30T12:30:13.915Z,35.30
2019-05-30T12:32:43.618Z,35.80
2019-05-30T12:35:15.601Z,37.60
2019-05-30T12:37:54.971Z,34.50
2019-05-30T12:40:18.761Z,34.80
2019-05-30T12:42:48.457Z,36.50
2019-05-30T12:45:18.980Z,36.60
2019-05-30T12:47:48.626Z,38.90
2019-05-30T12:50:21.839Z,37.90
2019-05-30T12:52:51.801Z,40.90
2019-05-30T12:55:22.006Z,42.00
2019-05-30T12:57:51.765Z,40.00
2019-05-30T13:00:24.658Z,38.70
2019-05-30T13:02:54.668Z,35.20
2019-05-30T13:05:24.543Z,34.50
2019-05-30T13:08:08.124Z,38.30
2019-05-30T13:10:27.099Z,40.50
2019-05-30T13:12:57.524Z,41.70
2019-05-30T13:15:27.356Z,38.70
2019-05-30T13:17:57.335Z,41.40
2019-05-30T13:20:27.963Z,40.30
2019-05-30T13:22:58.427Z,42.30
2019-05-30T13:25:28.940Z,38.20
2019-05-30T13:28:01.985Z,38.70
2019-05-30T13:30:30.361Z,38.00
2019-05-30T13:33:00.884Z,38.50
2019-05-30T13:35:30.839Z,40.00
2019-05-30T13:38:01.322Z,40.10
2019-05-30T13:40:31.423Z,41.60
2019-05-30T13:43:01.922Z,38.00
2019-05-30T13:45:31.711Z,37.40
2019-05-30T13:48:02.527Z,38.40
2019-05-30T13:50:32.327Z,37.40
2019-05-30T13:53:03.037Z,37.50
2019-05-30T13:55:33.381Z,37.70
2019-05-30T13:58:03.646Z,36.20
2019-05-30T14:00:33.445Z,35.50
2019-05-30T14:03:04.098Z,34.80
2019-05-30T14:05:33.832Z,37.50
2019-05-30T14:08:06.564Z,38.50
2019-05-30T14:10:35.026Z,37.10
2019-05-30T14:13:04.876Z,36.80
2019-05-30T14:15:34.733Z,37.80
2019-05-30T14:18:04.958Z,38.00
2019-05-30T14:20:34.773Z,37.20
2019-05-30T14:23:05.467Z,40.90
2019-05-30T14:25:35.240Z,40.30
2019-05-30T14:28:05.691Z,37.60
2019-05-30T14:30:35.483Z,39.10
2019-05-30T14:33:06.087Z,37.60
2019-05-30T14:35:36.230Z,35.90
2019-05-30T14:38:06.631Z,34.10
2019-05-30T14:40:36.500Z,33.20
2019-05-30T14:43:07.281Z,31.80
2019-05-30T14:45:37.241Z,30.10
2019-05-30T14:48:08.470Z,32.80
2019-05-30T14:50:38.321Z,36.90
2019-05-30T14:53:08.823Z,38.70
2019-05-30T14:55:38.491Z,38.00
2019-05-30T14:58:09.139Z,36.40
2019-05-30T15:00:38.806Z,37.20
2019-05-30T15:03:12.730Z,35.30
2019-05-30T15:05:39.931Z,34.80
2019-05-30T15:08:10.484Z,35.60
2019-05-30T15:10:40.221Z,37.40
2019-05-30T15:13:09.936Z,37.90
2019-05-30T15:15:39.762Z,34.00
2019-05-30T15:18:09.521Z,31.10
2019-05-30T15:20:39.220Z,31.30
2019-05-30T15:23:09.595Z,31.20
2019-05-30T15:25:39.289Z,29.70
2019-05-30T15:28:09.981Z,28.40
2019-05-30T15:30:39.625Z,28.00
2019-05-30T15:33:10.330Z,28.40
2019-05-30T15:35:40.198Z,29.00
2019-05-30T15:38:10.792Z,29.10
2019-05-30T15:40:40.503Z,28.60
2019-05-30T15:43:11.310Z,29.30
2019-05-30T15:45:41.108Z,28.80
2019-05-30T15:48:12.164Z,28.70
2019-05-30T15:50:42.112Z,27.60
2019-05-30T15:53:13.081Z,26.00
2019-05-30T15:55:42.854Z,26.60
2019-05-30T15:58:13.543Z,27.00
2019-05-30T16:00:43.360Z,26.30
2019-05-30T16:03:14.613Z,26.20
2019-05-30T16:05:44.471Z,26.00
2019-05-30T16:08:14.767Z,25.60
2019-05-30T16:10:44.523Z,24.90
2019-05-30T16:13:15.331Z,24.60
2019-05-30T16:15:45.413Z,24.50
2019-05-30T16:18:15.667Z,24.70
2019-05-30T16:20:45.535Z,24.90
2019-05-30T16:23:16.535Z,24.70
2019-05-30T16:25:46.711Z,24.50
2019-05-30T16:28:17.839Z,24.90
2019-05-30T16:30:47.864Z,24.30
2019-05-30T16:33:17.964Z,24.00
2019-05-30T16:35:47.825Z,24.00
2019-05-30T16:38:18.071Z,24.40
2019-05-30T16:40:47.843Z,24.00
2019-05-30T16:43:18.187Z,23.70
2019-05-30T16:45:48.218Z,23.20
2019-05-30T16:48:18.355Z,23.50
2019-05-30T16:51:07.409Z,23.80
2019-05-30T16:53:37.142Z,24.30
2019-05-30T16:56:07.256Z,24.70
2019-05-30T16:58:36.958Z,24.00
2019-05-30T17:01:06.658Z,24.00
2019-05-30T17:03:36.762Z,23.80
2019-05-30T17:06:06.715Z,24.00
2019-05-30T17:08:36.448Z,23.80
2019-05-30T17:11:06.247Z,23.80
2019-05-30T17:13:35.955Z,23.90
2019-05-30T17:16:05.862Z,23.90
2019-05-30T17:18:35.549Z,23.90
2019-05-30T17:21:05.394Z,24.30
2019-05-30T17:23:35.147Z,24.70
2019-05-30T17:26:04.911Z,25.10
2019-05-30T17:28:34.610Z,24.80
2019-05-30T17:31:04.335Z,23.90
2019-05-30T17:33:34.012Z,23.70
2019-05-30T17:36:03.712Z,23.80
2019-05-30T17:38:34.466Z,23.90
2019-05-30T17:41:04.215Z,24.30
2019-05-30T17:43:33.905Z,23.90
2019-05-30T17:46:03.713Z,23.20
2019-05-30T17:48:33.410Z,23.00
2019-05-30T17:51:03.097Z,22.50
2019-05-30T17:53:32.895Z,22.50
2019-05-30T17:56:02.593Z,22.10
2019-05-30T17:58:32.370Z,22.20
2019-05-30T18:01:02.044Z,22.30
2019-05-30T18:03:31.887Z,22.00
2019-05-30T18:06:01.622Z,22.20
2019-05-30T18:08:31.528Z,22.00
2019-05-30T18:11:01.210Z,22.00
2019-05-30T18:13:31.277Z,21.90
2019-05-30T18:16:01.587Z,21.70
2019-05-30T18:18:31.500Z,21.60
2019-05-30T18:21:01.180Z,21.70
2019-05-30T18:23:31.727Z,21.70
2019-05-30T18:26:01.664Z,21.60
2019-05-30T18:28:32.017Z,21.30
2019-05-30T18:31:21.865Z,21.00
2019-05-30T18:33:54.683Z,21.10
2019-05-30T18:36:24.607Z,20.80
2019-05-30T18:38:54.631Z,21.20
2019-05-30T18:41:24.596Z,21.40
2019-05-30T18:43:54.327Z,20.90
2019-05-30T18:46:24.946Z,20.90
2019-05-30T18:48:54.927Z,21.30
2019-05-30T18:51:24.667Z,21.20
2019-05-30T18:53:54.902Z,21.00
2019-05-30T18:56:24.633Z,21.00
2019-05-30T18:58:54.617Z,20.60
2019-05-30T19:01:25.403Z,21.00
2019-05-30T19:03:55.263Z,20.70
2019-05-30T19:06:25.650Z,20.60
2019-05-30T19:08:55.500Z,20.70
2019-05-30T19:11:29.595Z,20.30
2019-05-30T19:13:56.682Z,20.30
2019-05-30T19:16:26.434Z,20.30
2019-05-30T19:18:56.125Z,20.20
2019-05-30T19:21:25.829Z,20.20
2019-05-30T19:23:55.552Z,20.00
2019-05-30T19:26:26.217Z,20.10
2019-05-30T19:28:56.121Z,20.20
2019-05-30T19:31:26.470Z,20.30
2019-05-30T19:33:56.488Z,20.50
2019-05-30T19:36:26.843Z,20.20
2019-05-30T19:38:56.546Z,20.30
2019-05-30T19:41:27.389Z,20.20
2019-05-30T19:43:57.759Z,20.30
2019-05-30T19:46:28.047Z,20.30
2019-05-30T19:48:57.901Z,20.10
2019-05-30T19:51:28.717Z,19.90
2019-05-30T19:53:58.594Z,20.40
2019-05-30T19:56:29.178Z,20.00
2019-05-30T19:58:58.933Z,20.40
2019-05-30T20:01:29.725Z,20.20
2019-05-30T20:03:59.447Z,20.10
2019-05-30T20:06:30.547Z,19.90
2019-05-30T20:09:00.302Z,20.20
2019-05-30T20:11:30.840Z,20.00
2019-05-30T20:14:00.742Z,20.00
2019-05-30T20:16:31.417Z,19.90
2019-05-30T20:19:01.531Z,19.70
2019-05-30T20:21:31.751Z,19.50
2019-05-30T20:24:01.511Z,19.80
2019-05-30T20:26:32.525Z,19.50
2019-05-30T20:29:02.235Z,19.40
2019-05-30T20:31:33.321Z,19.60
2019-05-30T20:34:03.199Z,19.40
2019-05-30T20:36:32.813Z,19.50
2019-05-30T20:39:02.512Z,19.50
2019-05-30T20:41:32.200Z,19.40
2019-05-30T20:44:01.991Z,19.30
2019-05-30T20:46:31.681Z,19.20
2019-05-30T20:49:01.359Z,19.20
2019-05-30T20:51:31.063Z,19.20
2019-05-30T20:54:00.767Z,19.50
2019-05-30T20:56:31.300Z,19.10
2019-05-30T20:59:01.015Z,19.60
2019-05-30T21:01:31.001Z,19.20
2019-05-30T21:04:00.730Z,19.50
2019-05-30T21:06:31.489Z,19.30
2019-05-30T21:09:02.226Z,19.30
2019-05-30T21:11:36.110Z,19.30
2019-05-30T21:14:06.567Z,19.10
2019-05-30T21:16:37.646Z,19.30
2019-05-30T21:19:07.457Z,19.20
2019-05-30T21:21:37.903Z,19.20
2019-05-30T21:24:07.758Z,19.20
2019-05-30T21:26:38.462Z,19.00
2019-05-30T21:29:08.382Z,18.60
2019-05-30T21:31:39.217Z,18.60
2019-05-30T21:34:09.155Z,18.70
2019-05-30T21:36:39.810Z,18.50
2019-05-30T21:39:09.669Z,18.50
2019-05-30T21:41:40.158Z,18.70
2019-05-30T21:44:29.274Z,18.50
2019-05-30T21:46:58.972Z,18.60
2019-05-30T21:49:28.648Z,18.40
2019-05-30T21:51:58.691Z,18.00
2019-05-30T21:54:28.476Z,18.40
2019-05-30T21:56:58.184Z,18.00
2019-05-30T21:59:27.988Z,18.00
2019-05-30T22:01:57.874Z,18.30
2019-05-30T22:04:27.581Z,17.80
2019-05-30T22:06:57.306Z,17.80
2019-05-30T22:09:27.053Z,17.80
2019-05-30T22:11:56.743Z,18.00
2019-05-30T22:14:26.962Z,18.10
2019-05-30T22:16:56.639Z,17.60
2019-05-30T22:19:26.354Z,17.80
2019-05-30T22:21:56.061Z,18.00
2019-05-30T22:24:25.815Z,17.70
2019-05-30T22:26:55.529Z,17.60
2019-05-30T22:29:25.213Z,17.40
2019-05-30T22:31:54.925Z,17.70
2019-05-30T22:34:24.639Z,17.60
2019-05-30T22:36:54.365Z,17.50
2019-05-30T22:39:24.053Z,17.80
2019-05-30T22:41:53.807Z,17.70
2019-05-30T22:44:23.532Z,17.40
2019-05-30T22:46:53.271Z,17.30
2019-05-30T22:49:22.977Z,17.30
2019-05-30T22:51:53.227Z,17.20
2019-05-30T22:54:22.967Z,17.00
2019-05-30T22:56:53.572Z,17.30
2019-05-30T22:59:23.575Z,17.30
2019-05-30T23:01:53.707Z,17.20
2019-05-30T23:04:23.471Z,17.30
2019-05-30T23:06:54.440Z,17.20
2019-05-30T23:09:24.319Z,17.30
2019-05-30T23:11:54.359Z,17.10
2019-05-30T23:14:24.096Z,17.40
2019-05-30T23:16:54.485Z,17.30
2019-05-30T23:19:24.358Z,17.60
2019-05-30T23:21:55.047Z,17.50
2019-05-30T23:24:24.989Z,17.50
2019-05-30T23:26:55.867Z,17.10
2019-05-30T23:29:25.670Z,16.90
2019-05-30T23:31:56.178Z,16.80
2019-05-30T23:34:26.121Z,16.60
2019-05-30T23:36:56.681Z,16.60
2019-05-30T23:39:26.801Z,16.70
2019-05-30T23:41:57.257Z,16.70
2019-05-30T23:44:27.022Z,16.40
2019-05-30T23:46:57.818Z,16.50
2019-05-30T23:49:27.655Z,16.60
2019-05-30T23:51:58.378Z,16.40
2019-05-30T23:54:28.160Z,16.40
2019-05-30T23:56:58.599Z,16.60
2019-05-30T23:59:28.411Z,16.50
